sensor_id;sensor_type;location;lat;lon;timestamp;temperature;humidity
69261;DHT22;56378;52.404;20.816;2024-01-30T00:01:58;-0.40;99.90
69261;DHT22;56378;52.404;20.816;2024-01-30T00:04:24;-0.40;99.90
69261;DHT22;56378;52.404;20.816;2024-01-30T00:06:51;-0.40;99.90
69261;DHT22;56378;52.404;20.816;2024-01-30T00:09:18;-0.50;99.90
69261;DHT22;56378;52.404;20.816;2024-01-30T00:11:45;-0.50;99.90
69261;DHT22;56378;52.404;20.816;2024-01-30T00:14:11;-0.50;99.90
69261;DHT22;56378;52.404;20.816;2024-01-30T00:16:36;-0.60;99.90
69261;DHT22;56378;52.404;20.816;2024-01-30T00:19:02;-0.40;99.90
69261;DHT22;56378;52.404;20.816;2024-01-30T00:21:29;-0.40;99.90
69261;DHT22;56378;52.404;20.816;2024-01-30T00:23:54;-0.50;99.90
69261;DHT22;56378;52.404;20.816;2024-01-30T00:26:20;-0.50;99.90
69261;DHT22;56378;52.404;20.816;2024-01-30T00:28:46;-0.60;99.90
69261;DHT22;56378;52.404;20.816;2024-01-30T00:31:12;-0.60;99.90
69261;DHT22;56378;52.404;20.816;2024-01-30T00:33:41;-0.70;99.90
69261;DHT22;56378;52.404;20.816;2024-01-30T00:36:08;-0.70;99.90
69261;DHT22;56378;52.404;20.816;2024-01-30T00:38:35;-0.80;99.90
69261;DHT22;56378;52.404;20.816;2024-01-30T00:41:01;-0.80;99.90
69261;DHT22;56378;52.404;20.816;2024-01-30T00:43:30;-0.80;99.90
69261;DHT22;56378;52.404;20.816;2024-01-30T00:45:56;-0.80;99.90
69261;DHT22;56378;52.404;20.816;2024-01-30T00:48:23;-0.90;99.90
69261;DHT22;56378;52.404;20.816;2024-01-30T00:50:49;-0.90;99.90
69261;DHT22;56378;52.404;20.816;2024-01-30T00:53:15;-0.90;99.90
69261;DHT22;56378;52.404;20.816;2024-01-30T00:55:40;-0.90;99.90
69261;DHT22;56378;52.404;20.816;2024-01-30T00:58:06;-1.00;99.90
69261;DHT22;56378;52.404;20.816;2024-01-30T01:00:32;-0.90;99.90
69261;DHT22;56378;52.404;20.816;2024-01-30T01:02:59;-1.00;99.90
69261;DHT22;56378;52.404;20.816;2024-01-30T01:05:25;-1.10;99.90
69261;DHT22;56378;52.404;20.816;2024-01-30T01:07:51;-1.20;99.90
69261;DHT22;56378;52.404;20.816;2024-01-30T01:10:17;-1.20;99.90
69261;DHT22;56378;52.404;20.816;2024-01-30T01:12:44;-1.20;99.90
69261;DHT22;56378;52.404;20.816;2024-01-30T01:15:10;-1.30;99.90
69261;DHT22;56378;52.404;20.816;2024-01-30T01:17:37;-1.30;99.90
69261;DHT22;56378;52.404;20.816;2024-01-30T01:20:04;-1.30;99.90
69261;DHT22;56378;52.404;20.816;2024-01-30T01:22:33;-1.30;99.90
69261;DHT22;56378;52.404;20.816;2024-01-30T01:25:00;-1.30;99.90
69261;DHT22;56378;52.404;20.816;2024-01-30T01:27:26;-1.30;99.90
69261;DHT22;56378;52.404;20.816;2024-01-30T01:29:52;-1.40;99.90
69261;DHT22;56378;52.404;20.816;2024-01-30T01:32:18;-1.30;99.90
69261;DHT22;56378;52.404;20.816;2024-01-30T01:34:44;-1.30;99.90
69261;DHT22;56378;52.404;20.816;2024-01-30T01:37:10;-1.30;99.90
69261;DHT22;56378;52.404;20.816;2024-01-30T01:39:36;-1.30;99.90
69261;DHT22;56378;52.404;20.816;2024-01-30T01:42:02;-1.40;99.90
69261;DHT22;56378;52.404;20.816;2024-01-30T01:44:28;-1.40;99.90
69261;DHT22;56378;52.404;20.816;2024-01-30T01:46:54;-1.40;99.90
69261;DHT22;56378;52.404;20.816;2024-01-30T01:49:25;-1.40;99.90
69261;DHT22;56378;52.404;20.816;2024-01-30T01:51:54;-1.40;99.90
69261;DHT22;56378;52.404;20.816;2024-01-30T01:54:22;-1.40;99.90
69261;DHT22;56378;52.404;20.816;2024-01-30T01:56:49;-1.40;99.90
69261;DHT22;56378;52.404;20.816;2024-01-30T01:59:15;-1.40;99.90
69261;DHT22;56378;52.404;20.816;2024-01-30T02:01:41;-1.50;99.90
69261;DHT22;56378;52.404;20.816;2024-01-30T02:04:08;-1.60;99.90
69261;DHT22;56378;52.404;20.816;2024-01-30T02:06:34;-1.70;99.90
69261;DHT22;56378;52.404;20.816;2024-01-30T02:09:00;-1.70;99.90
69261;DHT22;56378;52.404;20.816;2024-01-30T02:11:26;-1.70;99.90
69261;DHT22;56378;52.404;20.816;2024-01-30T02:13:53;-1.80;99.90
69261;DHT22;56378;52.404;20.816;2024-01-30T02:16:18;-1.80;99.90
69261;DHT22;56378;52.404;20.816;2024-01-30T02:18:44;-1.80;99.90
69261;DHT22;56378;52.404;20.816;2024-01-30T02:21:16;-1.90;99.90
69261;DHT22;56378;52.404;20.816;2024-01-30T02:23:43;-1.90;99.90
69261;DHT22;56378;52.404;20.816;2024-01-30T02:26:10;-2.00;99.90
69261;DHT22;56378;52.404;20.816;2024-01-30T02:28:37;-2.10;99.90
69261;DHT22;56378;52.404;20.816;2024-01-30T02:31:03;-2.10;99.90
69261;DHT22;56378;52.404;20.816;2024-01-30T02:33:29;-2.10;99.90
69261;DHT22;56378;52.404;20.816;2024-01-30T02:35:55;-2.10;99.90
69261;DHT22;56378;52.404;20.816;2024-01-30T02:38:21;-2.10;99.90
69261;DHT22;56378;52.404;20.816;2024-01-30T02:40:47;-2.20;99.90
69261;DHT22;56378;52.404;20.816;2024-01-30T02:43:12;-2.20;99.90
69261;DHT22;56378;52.404;20.816;2024-01-30T02:45:38;-2.30;99.90
69261;DHT22;56378;52.404;20.816;2024-01-30T02:48:04;-2.30;99.90
69261;DHT22;56378;52.404;20.816;2024-01-30T02:50:30;-2.40;99.90
69261;DHT22;56378;52.404;20.816;2024-01-30T02:52:56;-2.40;99.90
69261;DHT22;56378;52.404;20.816;2024-01-30T02:55:21;-2.50;99.90
69261;DHT22;56378;52.404;20.816;2024-01-30T02:57:47;-2.50;99.90
69261;DHT22;56378;52.404;20.816;2024-01-30T03:00:13;-2.50;99.90
69261;DHT22;56378;52.404;20.816;2024-01-30T03:02:39;-2.50;99.90
69261;DHT22;56378;52.404;20.816;2024-01-30T03:05:06;-2.50;99.90
69261;DHT22;56378;52.404;20.816;2024-01-30T03:07:33;-2.60;99.90
69261;DHT22;56378;52.404;20.816;2024-01-30T03:09:59;-2.60;99.90
69261;DHT22;56378;52.404;20.816;2024-01-30T03:12:25;-2.70;99.90
69261;DHT22;56378;52.404;20.816;2024-01-30T03:14:51;-2.70;99.90
69261;DHT22;56378;52.404;20.816;2024-01-30T03:17:17;-2.70;99.90
69261;DHT22;56378;52.404;20.816;2024-01-30T03:19:43;-2.80;99.90
69261;DHT22;56378;52.404;20.816;2024-01-30T03:22:08;-2.80;99.90
69261;DHT22;56378;52.404;20.816;2024-01-30T03:24:34;-2.80;99.90
69261;DHT22;56378;52.404;20.816;2024-01-30T03:27:00;-2.80;99.90
69261;DHT22;56378;52.404;20.816;2024-01-30T03:29:26;-2.80;99.90
69261;DHT22;56378;52.404;20.816;2024-01-30T03:31:52;-2.80;99.90
69261;DHT22;56378;52.404;20.816;2024-01-30T03:34:18;-2.80;99.90
69261;DHT22;56378;52.404;20.816;2024-01-30T03:36:44;-2.80;99.90
69261;DHT22;56378;52.404;20.816;2024-01-30T03:39:09;-2.80;99.90
69261;DHT22;56378;52.404;20.816;2024-01-30T03:41:35;-2.80;99.90
69261;DHT22;56378;52.404;20.816;2024-01-30T03:44:01;-2.80;99.90
69261;DHT22;56378;52.404;20.816;2024-01-30T03:46:27;-2.80;99.90
69261;DHT22;56378;52.404;20.816;2024-01-30T03:48:53;-2.70;99.90
69261;DHT22;56378;52.404;20.816;2024-01-30T03:51:19;-2.70;99.90
69261;DHT22;56378;52.404;20.816;2024-01-30T03:53:45;-2.70;99.90
69261;DHT22;56378;52.404;20.816;2024-01-30T03:56:12;-2.70;99.90
69261;DHT22;56378;52.404;20.816;2024-01-30T03:58:40;-2.70;99.90
69261;DHT22;56378;52.404;20.816;2024-01-30T04:01:07;-2.70;99.90
69261;DHT22;56378;52.404;20.816;2024-01-30T04:03:32;-2.70;99.90
69261;DHT22;56378;52.404;20.816;2024-01-30T04:05:58;-2.60;99.90
69261;DHT22;56378;52.404;20.816;2024-01-30T04:08:24;-2.60;99.90
69261;DHT22;56378;52.404;20.816;2024-01-30T04:10:50;-2.60;99.90
69261;DHT22;56378;52.404;20.816;2024-01-30T04:13:15;-2.60;99.90
69261;DHT22;56378;52.404;20.816;2024-01-30T04:15:41;-2.60;99.90
69261;DHT22;56378;52.404;20.816;2024-01-30T04:18:07;-2.60;99.90
69261;DHT22;56378;52.404;20.816;2024-01-30T04:20:33;-2.60;99.90
69261;DHT22;56378;52.404;20.816;2024-01-30T04:22:59;-2.60;99.90
69261;DHT22;56378;52.404;20.816;2024-01-30T04:25:24;-2.60;99.90
69261;DHT22;56378;52.404;20.816;2024-01-30T04:27:50;-2.60;99.90
69261;DHT22;56378;52.404;20.816;2024-01-30T04:30:16;-2.50;99.90
69261;DHT22;56378;52.404;20.816;2024-01-30T04:32:42;-2.50;99.90
69261;DHT22;56378;52.404;20.816;2024-01-30T04:35:08;-2.50;99.90
69261;DHT22;56378;52.404;20.816;2024-01-30T04:37:34;-2.50;99.90
69261;DHT22;56378;52.404;20.816;2024-01-30T04:39:59;-2.50;99.90
69261;DHT22;56378;52.404;20.816;2024-01-30T04:42:25;-2.40;99.90
69261;DHT22;56378;52.404;20.816;2024-01-30T04:44:51;-2.40;99.90
69261;DHT22;56378;52.404;20.816;2024-01-30T04:47:16;-2.40;99.90
69261;DHT22;56378;52.404;20.816;2024-01-30T04:49:42;-2.40;99.90
69261;DHT22;56378;52.404;20.816;2024-01-30T04:52:09;-2.50;99.90
69261;DHT22;56378;52.404;20.816;2024-01-30T04:54:35;-2.50;99.90
69261;DHT22;56378;52.404;20.816;2024-01-30T04:57:02;-2.50;99.90
69261;DHT22;56378;52.404;20.816;2024-01-30T04:59:28;-2.40;99.90
69261;DHT22;56378;52.404;20.816;2024-01-30T05:01:54;-2.40;99.90
69261;DHT22;56378;52.404;20.816;2024-01-30T05:04:20;-2.40;99.90
69261;DHT22;56378;52.404;20.816;2024-01-30T05:06:47;-2.40;99.90
69261;DHT22;56378;52.404;20.816;2024-01-30T05:09:13;-2.40;99.90
69261;DHT22;56378;52.404;20.816;2024-01-30T05:11:40;-2.50;99.90
69261;DHT22;56378;52.404;20.816;2024-01-30T05:14:07;-2.50;99.90
69261;DHT22;56378;52.404;20.816;2024-01-30T05:16:34;-2.50;99.90
69261;DHT22;56378;52.404;20.816;2024-01-30T05:19:00;-2.50;99.90
69261;DHT22;56378;52.404;20.816;2024-01-30T05:21:26;-2.60;99.90
69261;DHT22;56378;52.404;20.816;2024-01-30T05:23:52;-2.50;99.90
69261;DHT22;56378;52.404;20.816;2024-01-30T05:26:18;-2.60;99.90
69261;DHT22;56378;52.404;20.816;2024-01-30T05:28:44;-2.60;99.90
69261;DHT22;56378;52.404;20.816;2024-01-30T05:31:13;-2.60;99.90
69261;DHT22;56378;52.404;20.816;2024-01-30T05:33:40;-2.60;99.90
69261;DHT22;56378;52.404;20.816;2024-01-30T05:36:06;-2.60;99.90
69261;DHT22;56378;52.404;20.816;2024-01-30T05:38:31;-2.70;99.90
69261;DHT22;56378;52.404;20.816;2024-01-30T05:40:57;-2.70;99.90
69261;DHT22;56378;52.404;20.816;2024-01-30T05:43:24;-2.70;99.90
69261;DHT22;56378;52.404;20.816;2024-01-30T05:45:50;-2.80;99.90
69261;DHT22;56378;52.404;20.816;2024-01-30T05:48:16;-2.80;99.90
69261;DHT22;56378;52.404;20.816;2024-01-30T05:50:42;-2.80;99.90
69261;DHT22;56378;52.404;20.816;2024-01-30T05:53:08;-2.80;99.90
69261;DHT22;56378;52.404;20.816;2024-01-30T05:55:34;-2.70;99.90
69261;DHT22;56378;52.404;20.816;2024-01-30T05:58:00;-2.70;99.90
69261;DHT22;56378;52.404;20.816;2024-01-30T06:00:25;-2.60;99.90
69261;DHT22;56378;52.404;20.816;2024-01-30T06:02:51;-2.60;99.90
69261;DHT22;56378;52.404;20.816;2024-01-30T06:05:17;-2.60;99.90
69261;DHT22;56378;52.404;20.816;2024-01-30T06:07:43;-2.60;99.90
69261;DHT22;56378;52.404;20.816;2024-01-30T06:10:09;-2.60;99.90
69261;DHT22;56378;52.404;20.816;2024-01-30T06:12:35;-2.60;99.90
69261;DHT22;56378;52.404;20.816;2024-01-30T06:15:01;-2.50;99.90
69261;DHT22;56378;52.404;20.816;2024-01-30T06:17:27;-2.50;99.90
69261;DHT22;56378;52.404;20.816;2024-01-30T06:19:53;-2.50;99.90
69261;DHT22;56378;52.404;20.816;2024-01-30T06:22:19;-2.50;99.90
69261;DHT22;56378;52.404;20.816;2024-01-30T06:24:45;-2.50;99.90
69261;DHT22;56378;52.404;20.816;2024-01-30T06:27:13;-2.40;99.90
69261;DHT22;56378;52.404;20.816;2024-01-30T06:29:40;-2.40;99.90
69261;DHT22;56378;52.404;20.816;2024-01-30T06:32:06;-2.30;99.90
69261;DHT22;56378;52.404;20.816;2024-01-30T06:34:31;-2.20;99.90
69261;DHT22;56378;52.404;20.816;2024-01-30T06:36:57;-2.20;99.90
69261;DHT22;56378;52.404;20.816;2024-01-30T06:39:23;-2.20;99.90
69261;DHT22;56378;52.404;20.816;2024-01-30T06:41:49;-2.10;99.90
69261;DHT22;56378;52.404;20.816;2024-01-30T06:44:15;-2.10;99.90
69261;DHT22;56378;52.404;20.816;2024-01-30T06:46:40;-2.10;99.90
69261;DHT22;56378;52.404;20.816;2024-01-30T06:49:06;-2.00;99.90
69261;DHT22;56378;52.404;20.816;2024-01-30T06:51:32;-1.90;99.90
69261;DHT22;56378;52.404;20.816;2024-01-30T06:53:58;-1.80;99.90
69261;DHT22;56378;52.404;20.816;2024-01-30T06:56:23;-1.70;99.90
69261;DHT22;56378;52.404;20.816;2024-01-30T06:58:50;-1.60;99.90
69261;DHT22;56378;52.404;20.816;2024-01-30T07:01:16;-1.50;99.90
69261;DHT22;56378;52.404;20.816;2024-01-30T07:03:42;-1.30;99.90
69261;DHT22;56378;52.404;20.816;2024-01-30T07:06:09;-1.30;99.90
69261;DHT22;56378;52.404;20.816;2024-01-30T07:08:36;-1.10;99.90
69261;DHT22;56378;52.404;20.816;2024-01-30T07:11:05;-1.00;99.90
69261;DHT22;56378;52.404;20.816;2024-01-30T07:13:31;-0.80;99.90
69261;DHT22;56378;52.404;20.816;2024-01-30T07:15:57;-0.40;99.90
69261;DHT22;56378;52.404;20.816;2024-01-30T07:18:23;0.00;99.90
69261;DHT22;56378;52.404;20.816;2024-01-30T07:20:49;1.20;99.90
69261;DHT22;56378;52.404;20.816;2024-01-30T07:23:16;2.50;99.90
69261;DHT22;56378;52.404;20.816;2024-01-30T07:25:44;3.20;99.90
69261;DHT22;56378;52.404;20.816;2024-01-30T07:28:10;3.20;99.90
69261;DHT22;56378;52.404;20.816;2024-01-30T07:30:37;3.50;99.90
69261;DHT22;56378;52.404;20.816;2024-01-30T07:33:03;3.60;99.90
69261;DHT22;56378;52.404;20.816;2024-01-30T07:35:29;3.80;98.60
69261;DHT22;56378;52.404;20.816;2024-01-30T07:37:55;3.90;98.50
69261;DHT22;56378;52.404;20.816;2024-01-30T07:40:20;4.30;96.20
69261;DHT22;56378;52.404;20.816;2024-01-30T07:42:48;5.30;92.10
69261;DHT22;56378;52.404;20.816;2024-01-30T07:45:14;5.90;87.80
69261;DHT22;56378;52.404;20.816;2024-01-30T07:47:40;6.10;85.80
69261;DHT22;56378;52.404;20.816;2024-01-30T07:50:08;6.10;84.10
69261;DHT22;56378;52.404;20.816;2024-01-30T07:52:34;6.10;83.20
69261;DHT22;56378;52.404;20.816;2024-01-30T07:55:00;6.10;84.60
69261;DHT22;56378;52.404;20.816;2024-01-30T07:57:26;6.60;83.60
69261;DHT22;56378;52.404;20.816;2024-01-30T07:59:51;8.20;77.00
69261;DHT22;56378;52.404;20.816;2024-01-30T08:02:17;10.10;62.20
69261;DHT22;56378;52.404;20.816;2024-01-30T08:04:43;11.50;55.60
69261;DHT22;56378;52.404;20.816;2024-01-30T08:07:09;12.70;51.30
69261;DHT22;56378;52.404;20.816;2024-01-30T08:09:35;14.00;47.20
69261;DHT22;56378;52.404;20.816;2024-01-30T08:12:01;15.00;43.60
69261;DHT22;56378;52.404;20.816;2024-01-30T08:14:27;15.90;41.90
69261;DHT22;56378;52.404;20.816;2024-01-30T08:16:53;17.00;38.30
69261;DHT22;56378;52.404;20.816;2024-01-30T08:19:20;17.80;36.10
69261;DHT22;56378;52.404;20.816;2024-01-30T08:21:46;18.50;35.30
69261;DHT22;56378;52.404;20.816;2024-01-30T08:24:12;19.30;33.50
69261;DHT22;56378;52.404;20.816;2024-01-30T08:26:37;19.80;32.20
69261;DHT22;56378;52.404;20.816;2024-01-30T08:29:04;20.10;32.10
69261;DHT22;56378;52.404;20.816;2024-01-30T08:31:29;21.00;30.70
69261;DHT22;56378;52.404;20.816;2024-01-30T08:33:55;21.80;29.70
69261;DHT22;56378;52.404;20.816;2024-01-30T08:36:22;22.30;28.70
69261;DHT22;56378;52.404;20.816;2024-01-30T08:38:48;22.20;28.90
69261;DHT22;56378;52.404;20.816;2024-01-30T08:41:14;22.70;28.00
69261;DHT22;56378;52.404;20.816;2024-01-30T08:43:39;23.30;27.20
69261;DHT22;56378;52.404;20.816;2024-01-30T08:46:05;23.70;27.10
69261;DHT22;56378;52.404;20.816;2024-01-30T08:48:31;24.20;26.00
69261;DHT22;56378;52.404;20.816;2024-01-30T08:50:57;24.90;25.70
69261;DHT22;56378;52.404;20.816;2024-01-30T08:53:23;24.60;25.60
69261;DHT22;56378;52.404;20.816;2024-01-30T08:55:48;25.30;25.00
69261;DHT22;56378;52.404;20.816;2024-01-30T08:58:14;24.40;26.00
69261;DHT22;56378;52.404;20.816;2024-01-30T09:00:40;25.50;25.10
69261;DHT22;56378;52.404;20.816;2024-01-30T09:03:06;25.80;24.40
69261;DHT22;56378;52.404;20.816;2024-01-30T09:05:32;26.40;24.10
69261;DHT22;56378;52.404;20.816;2024-01-30T09:07:58;27.10;23.50
69261;DHT22;56378;52.404;20.816;2024-01-30T09:10:24;26.70;23.00
69261;DHT22;56378;52.404;20.816;2024-01-30T09:12:49;26.50;23.70
69261;DHT22;56378;52.404;20.816;2024-01-30T09:15:15;27.20;23.00
69261;DHT22;56378;52.404;20.816;2024-01-30T09:17:41;26.90;22.70
69261;DHT22;56378;52.404;20.816;2024-01-30T09:20:07;26.50;23.30
69261;DHT22;56378;52.404;20.816;2024-01-30T09:22:34;27.10;23.20
69261;DHT22;56378;52.404;20.816;2024-01-30T09:25:00;27.30;22.60
69261;DHT22;56378;52.404;20.816;2024-01-30T09:27:26;27.20;22.70
69261;DHT22;56378;52.404;20.816;2024-01-30T09:29:51;27.10;23.00
69261;DHT22;56378;52.404;20.816;2024-01-30T09:32:18;27.40;22.40
69261;DHT22;56378;52.404;20.816;2024-01-30T09:34:44;26.60;23.10
69261;DHT22;56378;52.404;20.816;2024-01-30T09:37:09;27.30;22.60
69261;DHT22;56378;52.404;20.816;2024-01-30T09:39:35;27.90;22.80
69261;DHT22;56378;52.404;20.816;2024-01-30T09:42:11;29.10;21.60
69261;DHT22;56378;52.404;20.816;2024-01-30T09:44:43;30.50;20.80
69261;DHT22;56378;52.404;20.816;2024-01-30T09:47:10;31.50;19.80
69261;DHT22;56378;52.404;20.816;2024-01-30T09:49:36;31.60;19.60
69261;DHT22;56378;52.404;20.816;2024-01-30T09:52:05;30.90;20.10
69261;DHT22;56378;52.404;20.816;2024-01-30T09:54:33;31.50;19.90
69261;DHT22;56378;52.404;20.816;2024-01-30T09:57:00;32.00;19.80
69261;DHT22;56378;52.404;20.816;2024-01-30T09:59:25;32.50;19.30
69261;DHT22;56378;52.404;20.816;2024-01-30T10:01:51;33.00;19.00
69261;DHT22;56378;52.404;20.816;2024-01-30T10:04:17;33.10;18.80
69261;DHT22;56378;52.404;20.816;2024-01-30T10:06:43;32.40;19.20
69261;DHT22;56378;52.404;20.816;2024-01-30T10:09:09;32.80;18.80
69261;DHT22;56378;52.404;20.816;2024-01-30T10:11:37;33.50;19.00
69261;DHT22;56378;52.404;20.816;2024-01-30T10:14:03;33.80;18.60
69261;DHT22;56378;52.404;20.816;2024-01-30T10:16:29;34.00;18.20
69261;DHT22;56378;52.404;20.816;2024-01-30T10:18:54;33.70;18.40
69261;DHT22;56378;52.404;20.816;2024-01-30T10:21:21;33.70;18.50
69261;DHT22;56378;52.404;20.816;2024-01-30T10:23:46;34.10;18.40
69261;DHT22;56378;52.404;20.816;2024-01-30T10:26:13;34.70;18.00
69261;DHT22;56378;52.404;20.816;2024-01-30T10:28:39;34.60;17.90
69261;DHT22;56378;52.404;20.816;2024-01-30T10:31:05;34.20;18.20
69261;DHT22;56378;52.404;20.816;2024-01-30T10:33:31;34.40;18.20
69261;DHT22;56378;52.404;20.816;2024-01-30T10:36:04;34.20;18.20
69261;DHT22;56378;52.404;20.816;2024-01-30T10:38:31;33.80;18.10
69261;DHT22;56378;52.404;20.816;2024-01-30T10:40:58;33.80;18.30
69261;DHT22;56378;52.404;20.816;2024-01-30T10:43:31;32.80;18.60
69261;DHT22;56378;52.404;20.816;2024-01-30T10:46:19;32.70;19.00
69261;DHT22;56378;52.404;20.816;2024-01-30T10:48:57;33.00;18.30
69261;DHT22;56378;52.404;20.816;2024-01-30T10:51:29;31.30;19.50
69261;DHT22;56378;52.404;20.816;2024-01-30T10:53:56;30.90;19.40
69261;DHT22;56378;52.404;20.816;2024-01-30T10:56:23;31.00;19.90
69261;DHT22;56378;52.404;20.816;2024-01-30T10:58:53;31.70;19.40
69261;DHT22;56378;52.404;20.816;2024-01-30T11:01:20;31.30;18.90
69261;DHT22;56378;52.404;20.816;2024-01-30T11:03:51;29.90;20.00
69261;DHT22;56378;52.404;20.816;2024-01-30T11:06:18;28.80;20.80
69261;DHT22;56378;52.404;20.816;2024-01-30T11:08:45;25.30;22.70
69261;DHT22;56378;52.404;20.816;2024-01-30T11:11:11;23.00;25.10
69261;DHT22;56378;52.404;20.816;2024-01-30T11:13:36;21.60;26.60
69261;DHT22;56378;52.404;20.816;2024-01-30T11:16:03;19.90;28.10
69261;DHT22;56378;52.404;20.816;2024-01-30T11:18:30;18.70;29.50
69261;DHT22;56378;52.404;20.816;2024-01-30T11:20:57;19.20;29.40
69261;DHT22;56378;52.404;20.816;2024-01-30T11:23:25;20.30;28.30
69261;DHT22;56378;52.404;20.816;2024-01-30T11:25:53;22.70;26.50
69261;DHT22;56378;52.404;20.816;2024-01-30T11:28:18;25.10;24.20
69261;DHT22;56378;52.404;20.816;2024-01-30T11:30:46;27.10;22.50
69261;DHT22;56378;52.404;20.816;2024-01-30T11:33:14;28.40;21.10
69261;DHT22;56378;52.404;20.816;2024-01-30T11:35:41;28.70;21.10
69261;DHT22;56378;52.404;20.816;2024-01-30T11:38:08;29.30;20.70
69261;DHT22;56378;52.404;20.816;2024-01-30T11:40:36;29.50;20.50
69261;DHT22;56378;52.404;20.816;2024-01-30T11:43:04;29.80;20.70
69261;DHT22;56378;52.404;20.816;2024-01-30T11:45:31;30.40;20.50
69261;DHT22;56378;52.404;20.816;2024-01-30T11:47:57;30.10;19.80
69261;DHT22;56378;52.404;20.816;2024-01-30T11:50:25;29.80;20.10
69261;DHT22;56378;52.404;20.816;2024-01-30T11:52:51;30.30;20.50
69261;DHT22;56378;52.404;20.816;2024-01-30T11:55:17;29.40;20.30
69261;DHT22;56378;52.404;20.816;2024-01-30T11:57:44;28.40;20.90
69261;DHT22;56378;52.404;20.816;2024-01-30T12:00:17;27.80;21.00
69261;DHT22;56378;52.404;20.816;2024-01-30T12:02:54;26.90;21.80
69261;DHT22;56378;52.404;20.816;2024-01-30T12:05:24;27.70;21.20
69261;DHT22;56378;52.404;20.816;2024-01-30T12:07:50;26.60;22.00
69261;DHT22;56378;52.404;20.816;2024-01-30T12:10:16;26.80;22.40
69261;DHT22;56378;52.404;20.816;2024-01-30T12:12:49;27.70;22.00
69261;DHT22;56378;52.404;20.816;2024-01-30T12:15:15;28.50;21.50
69261;DHT22;56378;52.404;20.816;2024-01-30T12:17:41;28.60;21.00
69261;DHT22;56378;52.404;20.816;2024-01-30T12:20:15;27.90;21.60
69261;DHT22;56378;52.404;20.816;2024-01-30T12:22:50;27.30;21.80
69261;DHT22;56378;52.404;20.816;2024-01-30T12:25:20;26.40;22.60
69261;DHT22;56378;52.404;20.816;2024-01-30T12:27:48;25.90;22.50
69261;DHT22;56378;52.404;20.816;2024-01-30T12:30:17;24.40;23.60
69261;DHT22;56378;52.404;20.816;2024-01-30T12:32:45;24.20;24.10
69261;DHT22;56378;52.404;20.816;2024-01-30T12:35:15;24.60;24.10
69261;DHT22;56378;52.404;20.816;2024-01-30T12:37:42;25.00;23.90
69261;DHT22;56378;52.404;20.816;2024-01-30T12:40:09;25.20;23.40
69261;DHT22;56378;52.404;20.816;2024-01-30T12:42:36;23.70;24.30
69261;DHT22;56378;52.404;20.816;2024-01-30T12:45:05;21.80;25.80
69261;DHT22;56378;52.404;20.816;2024-01-30T12:47:31;20.50;27.80
69261;DHT22;56378;52.404;20.816;2024-01-30T12:49:57;19.80;28.50
69261;DHT22;56378;52.404;20.816;2024-01-30T12:52:23;19.00;29.20
69261;DHT22;56378;52.404;20.816;2024-01-30T12:54:49;17.20;30.70
69261;DHT22;56378;52.404;20.816;2024-01-30T12:57:16;15.70;33.50
69261;DHT22;56378;52.404;20.816;2024-01-30T12:59:42;14.50;35.40
69261;DHT22;56378;52.404;20.816;2024-01-30T13:02:09;13.60;37.10
69261;DHT22;56378;52.404;20.816;2024-01-30T13:04:35;13.00;39.00
69261;DHT22;56378;52.404;20.816;2024-01-30T13:07:01;12.60;40.20
69261;DHT22;56378;52.404;20.816;2024-01-30T13:09:27;12.20;40.90
69261;DHT22;56378;52.404;20.816;2024-01-30T13:11:53;11.90;42.00
69261;DHT22;56378;52.404;20.816;2024-01-30T13:14:19;11.60;42.40
69261;DHT22;56378;52.404;20.816;2024-01-30T13:16:45;11.30;43.30
69261;DHT22;56378;52.404;20.816;2024-01-30T13:19:11;11.00;44.30
69261;DHT22;56378;52.404;20.816;2024-01-30T13:21:37;10.70;45.40
69261;DHT22;56378;52.404;20.816;2024-01-30T13:24:04;10.50;45.90
69261;DHT22;56378;52.404;20.816;2024-01-30T13:26:31;10.30;46.60
69261;DHT22;56378;52.404;20.816;2024-01-30T13:28:57;10.10;47.20
69261;DHT22;56378;52.404;20.816;2024-01-30T13:31:22;9.90;47.90
69261;DHT22;56378;52.404;20.816;2024-01-30T13:33:48;9.80;48.50
69261;DHT22;56378;52.404;20.816;2024-01-30T13:36:15;9.60;48.70
69261;DHT22;56378;52.404;20.816;2024-01-30T13:38:40;9.30;49.20
69261;DHT22;56378;52.404;20.816;2024-01-30T13:41:06;9.10;50.50
69261;DHT22;56378;52.404;20.816;2024-01-30T13:43:32;8.90;50.80
69261;DHT22;56378;52.404;20.816;2024-01-30T13:45:58;8.70;52.10
69261;DHT22;56378;52.404;20.816;2024-01-30T13:48:24;8.60;52.90
69261;DHT22;56378;52.404;20.816;2024-01-30T13:50:50;8.50;52.40
69261;DHT22;56378;52.404;20.816;2024-01-30T13:53:16;8.40;52.70
69261;DHT22;56378;52.404;20.816;2024-01-30T13:55:42;8.20;53.10
69261;DHT22;56378;52.404;20.816;2024-01-30T13:58:08;8.10;53.30
69261;DHT22;56378;52.404;20.816;2024-01-30T14:00:34;8.10;53.70
69261;DHT22;56378;52.404;20.816;2024-01-30T14:03:00;7.90;53.90
69261;DHT22;56378;52.404;20.816;2024-01-30T14:05:26;7.90;54.90
69261;DHT22;56378;52.404;20.816;2024-01-30T14:07:55;7.80;54.70
69261;DHT22;56378;52.404;20.816;2024-01-30T14:10:21;7.80;54.90
69261;DHT22;56378;52.404;20.816;2024-01-30T14:12:47;7.70;55.00
69261;DHT22;56378;52.404;20.816;2024-01-30T14:15:16;7.70;55.90
69261;DHT22;56378;52.404;20.816;2024-01-30T14:17:45;7.60;55.60
69261;DHT22;56378;52.404;20.816;2024-01-30T14:20:11;7.50;55.90
69261;DHT22;56378;52.404;20.816;2024-01-30T14:22:37;7.40;56.00
69261;DHT22;56378;52.404;20.816;2024-01-30T14:25:03;7.30;56.60
69261;DHT22;56378;52.404;20.816;2024-01-30T14:27:30;7.30;57.00
69261;DHT22;56378;52.404;20.816;2024-01-30T14:29:57;7.30;57.10
69261;DHT22;56378;52.404;20.816;2024-01-30T14:32:23;7.20;57.20
69261;DHT22;56378;52.404;20.816;2024-01-30T14:34:50;7.20;57.30
69261;DHT22;56378;52.404;20.816;2024-01-30T14:37:16;7.20;57.50
69261;DHT22;56378;52.404;20.816;2024-01-30T14:39:42;7.10;57.80
69261;DHT22;56378;52.404;20.816;2024-01-30T14:42:08;7.00;58.20
69261;DHT22;56378;52.404;20.816;2024-01-30T14:44:34;6.90;58.80
69261;DHT22;56378;52.404;20.816;2024-01-30T14:47:00;6.80;59.30
69261;DHT22;56378;52.404;20.816;2024-01-30T14:49:27;6.70;59.90
69261;DHT22;56378;52.404;20.816;2024-01-30T14:51:53;6.60;60.40
69261;DHT22;56378;52.404;20.816;2024-01-30T14:54:19;6.50;60.80
69261;DHT22;56378;52.404;20.816;2024-01-30T14:56:45;6.40;61.10
69261;DHT22;56378;52.404;20.816;2024-01-30T14:59:11;6.40;61.50
69261;DHT22;56378;52.404;20.816;2024-01-30T15:01:37;6.30;62.00
69261;DHT22;56378;52.404;20.816;2024-01-30T15:04:03;6.20;62.40
69261;DHT22;56378;52.404;20.816;2024-01-30T15:06:29;6.10;62.80
69261;DHT22;56378;52.404;20.816;2024-01-30T15:08:55;6.00;63.10
69261;DHT22;56378;52.404;20.816;2024-01-30T15:11:21;6.00;63.60
69261;DHT22;56378;52.404;20.816;2024-01-30T15:13:47;5.90;63.90